createdAt,value
2018-09-13T07:58:33.710Z,76.82
2018-09-13T07:59:43.291Z,77.11
2018-09-13T08:00:53.147Z,77.06
2018-09-13T08:02:02.735Z,77.25
2018-09-13T08:03:12.090Z,77.06
2018-09-13T08:04:21.673Z,76.77
2018-09-13T08:05:31.529Z,75.62
2018-09-13T08:06:41.661Z,75.15
2018-09-13T08:07:51.847Z,75.81
2018-09-13T08:09:01.749Z,74.29
2018-09-13T08:10:11.872Z,75.15
2018-09-13T08:11:21.747Z,75.34
2018-09-13T08:12:31.703Z,73.56
2018-09-13T08:13:41.602Z,75.28
2018-09-13T08:14:51.456Z,73.52
2018-09-13T08:16:01.842Z,74.19
2018-09-13T08:17:11.741Z,73.18
2018-09-13T08:18:21.316Z,73.18
2018-09-13T08:19:31.442Z,73.18
2018-09-13T08:20:41.298Z,73.28
2018-09-13T08:21:51.676Z,74.23
2018-09-13T08:23:02.147Z,72.89
2018-09-13T08:24:12.004Z,71.94
2018-09-13T08:25:21.857Z,73.18
2018-09-13T08:26:31.708Z,73.37
2018-09-13T08:27:41.629Z,72.42
2018-09-13T08:28:51.489Z,72.32
2018-09-13T08:30:01.644Z,72.42
2018-09-13T08:31:11.232Z,73.12
2018-09-13T08:32:21.362Z,71.88
2018-09-13T08:33:31.908Z,70.83
2018-09-13T08:34:42.419Z,70.83
2018-09-13T08:35:52.981Z,70.73
2018-09-13T08:37:03.283Z,69.59
2018-09-13T08:38:13.441Z,71.31
2018-09-13T08:39:23.578Z,70.92
2018-09-13T08:40:33.430Z,71.88
2018-09-13T08:41:43.560Z,71.41
2018-09-13T08:42:53.431Z,69.78
2018-09-13T08:44:03.447Z,70.45
2018-09-13T08:45:13.302Z,70.92
2018-09-13T08:46:23.161Z,69.31
2018-09-13T08:47:33.206Z,69.78
2018-09-13T08:48:43.236Z,70.16
2018-09-13T08:49:53.359Z,70.83
2018-09-13T08:51:02.666Z,69.87
2018-09-13T08:52:12.786Z,69.59
2018-09-13T08:53:22.598Z,68.63
2018-09-13T08:54:32.179Z,68.44
2018-09-13T08:55:42.307Z,68.26
2018-09-13T08:56:51.883Z,67.77
2018-09-13T08:58:01.511Z,68.06
2018-09-13T08:59:11.090Z,68.44
2018-09-13T09:00:20.672Z,67.49
2018-09-13T09:01:30.852Z,67.58
2018-09-13T09:02:40.708Z,67.58
2018-09-13T09:03:50.838Z,67.77
2018-09-13T09:05:00.968Z,68.92
2018-09-13T09:06:11.258Z,68.73
2018-09-13T09:07:21.616Z,67.21
2018-09-13T09:08:31.514Z,66.92
2018-09-13T09:09:41.366Z,66.25
2018-09-13T09:10:51.497Z,66.25
2018-09-13T09:12:01.423Z,67.49
2018-09-13T09:13:10.873Z,67.3
2018-09-13T09:14:20.727Z,66.63
2018-09-13T09:15:30.584Z,66.53
2018-09-13T09:16:40.710Z,66.66
2018-09-13T09:17:50.574Z,66.44
2018-09-13T09:19:00.162Z,66.53
2018-09-13T09:20:09.740Z,65.23
2018-09-13T09:21:19.930Z,67.58
2018-09-13T09:22:29.786Z,66.85
2018-09-13T09:23:39.962Z,66.28
2018-09-13T09:24:49.862Z,66.28
2018-09-13T09:25:59.766Z,66.56
2018-09-13T09:27:09.666Z,68.67
2018-09-13T09:28:19.795Z,65.71
2018-09-13T09:29:29.420Z,65.52
2018-09-13T09:30:39.559Z,66.19
2018-09-13T09:31:49.423Z,66.56
2018-09-13T09:32:59.286Z,65.42
2018-09-13T09:34:08.922Z,65.33
2018-09-13T09:35:18.772Z,64.28
2018-09-13T09:36:28.679Z,64.85
2018-09-13T09:37:38.530Z,64.85
2018-09-13T09:38:48.383Z,65.33
2018-09-13T09:39:58.155Z,66
2018-09-13T09:41:07.480Z,66.28
2018-09-13T09:42:17.382Z,66.25
2018-09-13T09:43:27.238Z,65.3
2018-09-13T09:44:37.378Z,64.81
2018-09-13T09:45:47.575Z,65.42
2018-09-13T09:46:57.156Z,65.71
2018-09-13T09:48:06.739Z,66.35
2018-09-13T09:49:17.293Z,66.35
2018-09-13T09:50:27.557Z,65.61
2018-09-13T09:51:38.093Z,65.33
2018-09-13T09:52:48.279Z,64.75
2018-09-13T09:53:57.901Z,64.94
2018-09-13T09:55:07.260Z,65.23
2018-09-13T09:56:17.624Z,63.99
2018-09-13T09:57:27.839Z,64.94
2018-09-13T09:58:37.969Z,63.8
2018-09-13T09:59:47.878Z,64.56
2018-09-13T10:00:57.462Z,64.18
2018-09-13T10:02:07.087Z,64.28
2018-09-13T10:03:16.958Z,63.13
2018-09-13T10:04:27.115Z,63.03
2018-09-13T10:05:37.155Z,65.04
2018-09-13T10:06:47.058Z,65.07
2018-09-13T10:07:56.633Z,63.83
2018-09-13T10:09:06.412Z,62.01
2018-09-13T10:10:16.874Z,62.11
2018-09-13T10:11:27.007Z,63.07
2018-09-13T10:12:37.139Z,62.78
2018-09-13T10:13:46.495Z,61.82
2018-09-13T10:14:56.356Z,61.25
2018-09-13T10:16:06.851Z,61.54
2018-09-13T10:17:16.705Z,62.78
2018-09-13T10:18:26.285Z,60.96
2018-09-13T10:19:36.139Z,60.87
2018-09-13T10:20:45.994Z,61.54
2018-09-13T10:21:56.064Z,62.01
2018-09-13T10:23:05.935Z,61.72
2018-09-13T10:24:15.785Z,61.35
2018-09-13T10:25:25.089Z,60.52
2018-09-13T10:26:35.043Z,60.3
2018-09-13T10:27:44.901Z,58.38
2018-09-13T10:28:55.183Z,59.53
2018-09-13T10:30:04.494Z,59.53
2018-09-13T10:31:14.688Z,59.84
2018-09-13T10:32:24.544Z,60.2
2018-09-13T10:33:34.696Z,60.61
2018-09-13T10:34:44.856Z,58.41
2018-09-13T10:35:55.038Z,58.41
2018-09-13T10:37:04.893Z,58.41
2018-09-13T10:38:14.747Z,58.89
2018-09-13T10:39:24.876Z,59.66
2018-09-13T10:40:34.813Z,59.37
2018-09-13T10:41:44.534Z,59.18
2018-09-13T10:42:54.662Z,61.47
2018-09-13T10:44:04.564Z,60.52
2018-09-13T10:45:14.466Z,60.99
2018-09-13T10:46:24.638Z,60.61
2018-09-13T10:47:34.884Z,58.34
2018-09-13T10:48:59.739Z,58.34
2018-09-13T10:50:09.052Z,59.01
2018-09-13T10:51:18.911Z,59.2
2018-09-13T10:52:28.927Z,58.63
2018-09-13T10:53:38.645Z,58.54
2018-09-13T10:54:48.049Z,58.73
2018-09-13T10:55:58.327Z,58.54
2018-09-13T10:57:08.191Z,59.2
2018-09-13T10:58:18.052Z,57.77
2018-09-13T10:59:27.959Z,60.26
2018-09-13T11:00:37.834Z,58.15
2018-09-13T11:01:47.690Z,57.87
2018-09-13T11:02:57.266Z,58.83
2018-09-13T11:04:07.598Z,57.2
2018-09-13T11:05:18.298Z,58.25
2018-09-13T11:06:28.428Z,56.56
2018-09-13T11:07:38.555Z,56.3
2018-09-13T11:08:48.409Z,56.49
2018-09-13T11:09:58.264Z,56.23
2018-09-13T11:11:08.706Z,52.52
2018-09-13T11:12:18.927Z,52.26
2018-09-13T11:13:28.510Z,50.92
2018-09-13T11:14:37.816Z,50.53
2018-09-13T11:15:47.949Z,50.63
2018-09-13T11:16:57.859Z,50.75
2018-09-13T11:18:07.996Z,50.73
2018-09-13T11:19:17.901Z,50.84
2018-09-13T11:20:28.038Z,50.65
2018-09-13T11:21:38.289Z,50.17
2018-09-13T11:22:48.773Z,51.18
2018-09-13T11:23:58.963Z,51.97
2018-09-13T11:25:08.933Z,51.14
2018-09-13T11:26:18.793Z,50.58
2018-09-13T11:27:28.380Z,50.78
2018-09-13T11:28:38.572Z,49.93
2018-09-13T11:29:48.168Z,48.23
2018-09-13T11:30:58.411Z,47.56
2018-09-13T11:32:08.324Z,47.27
2018-09-13T11:33:18.461Z,47.08
2018-09-13T11:34:28.045Z,46.86
2018-09-13T11:35:38.180Z,48.38
2018-09-13T11:36:47.765Z,48.28
2018-09-13T11:37:57.899Z,48.02
2018-09-13T11:39:07.766Z,46.38
2018-09-13T11:40:18.295Z,46.38
2018-09-13T11:41:29.042Z,45.73
2018-09-13T11:42:38.629Z,47.56
2018-09-13T11:43:47.995Z,45.76
2018-09-13T11:44:57.914Z,45.08
2018-09-13T11:46:07.278Z,47.08
2018-09-13T11:47:17.147Z,44.99
2018-09-13T11:48:27.286Z,45.37
2018-09-13T11:49:37.538Z,45.37
2018-09-13T11:50:46.848Z,47.22
2018-09-13T11:51:57.029Z,48.02
2018-09-13T11:53:06.614Z,46.52
2018-09-13T11:54:16.901Z,45.65
2018-09-13T11:55:27.086Z,44.48
2018-09-13T11:56:36.680Z,46.69
2018-09-13T11:57:46.545Z,46.47
2018-09-13T11:58:56.412Z,47.97
2018-09-13T12:00:06.593Z,48.54
2018-09-13T12:01:16.675Z,49.19
2018-09-13T12:02:26.978Z,48.88
2018-09-13T12:03:37.118Z,48.85
2018-09-13T12:04:46.704Z,51.23
2018-09-13T12:05:56.569Z,51.23
2018-09-13T12:07:06.571Z,51.87
2018-09-13T12:08:16.163Z,53.7
2018-09-13T12:09:26.235Z,53.79
2018-09-13T12:10:36.526Z,53.03
2018-09-13T12:11:46.387Z,53.58
2018-09-13T12:12:56.346Z,55.87
2018-09-13T12:14:06.535Z,55.46
2018-09-13T12:15:16.674Z,55.56
2018-09-13T12:16:26.809Z,57.16
2018-09-13T12:17:36.665Z,57.64
2018-09-13T12:18:46.572Z,58.47
2018-09-13T12:19:56.438Z,58.56
2018-09-13T12:21:06.119Z,58.37
2018-09-13T12:22:16.313Z,59.23
2018-09-13T12:23:26.260Z,59.11
2018-09-13T12:24:35.944Z,59.78
2018-09-13T12:25:46.076Z,60.55
2018-09-13T12:26:56.255Z,61.95
2018-09-13T12:28:06.127Z,61.57
2018-09-13T12:29:16.265Z,62.24
2018-09-13T12:30:26.122Z,62.52
2018-09-13T12:31:36.363Z,62.24
2018-09-13T12:32:46.596Z,61.95
2018-09-13T12:33:56.446Z,60.9
2018-09-13T12:35:06.136Z,61.57
2018-09-13T12:36:16.044Z,61.47
2018-09-13T12:37:25.680Z,61.92
2018-09-13T12:38:35.590Z,63.16
2018-09-13T12:39:44.901Z,63.07
2018-09-13T12:40:55.129Z,62.14
2018-09-13T12:42:04.759Z,62.81
2018-09-13T12:43:14.666Z,63.54
2018-09-13T12:44:24.246Z,62.9
2018-09-13T12:45:33.276Z,63.57
2018-09-13T12:46:42.631Z,63.96
2018-09-13T12:47:52.814Z,62.71
2018-09-13T12:49:02.672Z,62.71
2018-09-13T12:50:12.531Z,63.76
2018-09-13T12:51:22.719Z,64.34
2018-09-13T12:52:32.847Z,64.25
2018-09-13T12:53:43.075Z,62.14
2018-09-13T12:54:53.203Z,62.08
2018-09-13T12:56:03.059Z,63.13
2018-09-13T12:57:13.229Z,62.46
2018-09-13T12:58:23.362Z,61.6
2018-09-13T12:59:33.544Z,60.74
2018-09-13T13:00:42.850Z,61.15
2018-09-13T13:01:52.985Z,60.38
2018-09-13T13:03:03.113Z,60.96
2018-09-13T13:04:13.250Z,59.14
2018-09-13T13:05:22.876Z,58.63
2018-09-13T13:06:33.113Z,58.09
2018-09-13T13:07:43.498Z,58.47
2018-09-13T13:08:53.790Z,58.47
2018-09-13T13:10:03.612Z,57.8
2018-09-13T13:11:13.250Z,58.28
2018-09-13T13:12:23.121Z,58.56
2018-09-13T13:13:33.031Z,57.51
2018-09-13T13:14:43.158Z,58.47
2018-09-13T13:15:53.294Z,57.99
2018-09-13T13:17:03.724Z,58.54
2018-09-13T13:18:13.947Z,58.44
2018-09-13T13:19:24.245Z,57.77
2018-09-13T13:20:34.552Z,57.77
2018-09-13T13:21:44.409Z,57.77
2018-09-13T13:22:54.617Z,58.41
2018-09-13T13:24:04.471Z,58.41
2018-09-13T13:25:14.055Z,58.32
2018-09-13T13:26:24.234Z,58.61
2018-09-13T13:27:34.329Z,59.37
2018-09-13T13:28:44.312Z,59.47
2018-09-13T13:29:54.165Z,58.8
2018-09-13T13:31:04.395Z,59.27
2018-09-13T13:32:14.522Z,58.8
2018-09-13T13:33:24.650Z,58.8
2018-09-13T13:34:34.825Z,58.32
2018-09-13T13:35:45.061Z,59.18
2018-09-13T13:36:54.910Z,60.04
2018-09-13T13:38:04.488Z,60.42
2018-09-13T13:39:14.345Z,58.41
2018-09-13T13:40:23.716Z,58.41
2018-09-13T13:41:33.960Z,58.8
2018-09-13T13:42:43.830Z,58.61
2018-09-13T13:43:54.100Z,58.7
2018-09-13T13:45:04.642Z,59.18
2018-09-13T13:46:14.930Z,59.75
2018-09-13T13:47:25.136Z,60.35
2018-09-13T13:48:34.715Z,59.27
2018-09-13T13:49:44.845Z,57.93
2018-09-13T13:50:54.703Z,58.63
2018-09-13T13:52:04.883Z,58.06
2018-09-13T13:53:15.057Z,59.27
2018-09-13T13:54:24.964Z,58.54
2018-09-13T13:55:34.831Z,57.55
2018-09-13T13:56:44.693Z,58.8
2018-09-13T13:57:54.594Z,58.12
2018-09-13T13:59:04.450Z,58.51
2018-09-13T14:00:14.305Z,57.84
2018-09-13T14:01:24.444Z,58.22
2018-09-13T14:02:34.455Z,57.84
2018-09-13T14:03:44.380Z,57.84
2018-09-13T14:04:54.532Z,58.8
2018-09-13T14:06:04.396Z,59.47
2018-09-13T14:07:14.530Z,59.37
2018-09-13T14:08:24.711Z,57.97
2018-09-13T14:09:35.032Z,57.97
2018-09-13T14:10:45.146Z,59.01
2018-09-13T14:11:55.053Z,59.01
2018-09-13T14:13:04.637Z,58.73
2018-09-13T14:14:14.495Z,59.4
2018-09-13T14:15:24.736Z,58.06
2018-09-13T14:16:34.891Z,57.68
2018-09-13T14:17:44.472Z,57.13
2018-09-13T14:18:54.328Z,57.8
2018-09-13T14:20:04.228Z,57.99
2018-09-13T14:21:14.468Z,57.8
2018-09-13T14:22:24.686Z,56.94
2018-09-13T14:23:34.818Z,56.08
2018-09-13T14:24:44.676Z,56.08
2018-09-13T14:25:54.589Z,55.88
2018-09-13T14:27:04.552Z,54.83
2018-09-13T14:28:14.409Z,54.86
2018-09-13T14:29:24.589Z,55.44
2018-09-13T14:30:34.489Z,56.1
2018-09-13T14:31:44.349Z,56.2
2018-09-13T14:32:54.255Z,55.53
2018-09-13T14:34:04.114Z,54.79
2018-09-13T14:35:13.976Z,53.83
2018-09-13T14:36:24.169Z,54.03
2018-09-13T14:37:33.508Z,54.5
2018-09-13T14:38:43.414Z,54.22
2018-09-13T14:39:53.305Z,53.64
2018-09-13T14:41:02.927Z,53.55
2018-09-13T14:42:12.536Z,54.12
2018-09-13T14:43:22.396Z,54.12
2018-09-13T14:44:32.361Z,53.55
2018-09-13T14:45:42.501Z,55.18
2018-09-13T14:46:52.832Z,54.5
2018-09-13T14:48:02.967Z,54.22
2018-09-13T14:49:12.829Z,54.5
2018-09-13T14:50:23.009Z,54.32
2018-09-13T14:51:32.885Z,54.41
2018-09-13T14:52:42.742Z,55.94
2018-09-13T14:53:52.634Z,55.18
2018-09-13T14:55:02.537Z,54.53
2018-09-13T14:56:12.541Z,53.48
2018-09-13T14:57:23.110Z,53.09
2018-09-13T14:58:33.417Z,53.77
2018-09-13T14:59:42.998Z,53.67
2018-09-13T15:00:53.135Z,53.09
2018-09-13T15:02:02.767Z,54.34
2018-09-13T15:03:12.950Z,55.18
2018-09-13T15:04:22.813Z,54.89
2018-09-13T15:05:32.992Z,54.22
2018-09-13T15:06:42.856Z,54.79
2018-09-13T15:07:52.465Z,53.74
2018-09-13T15:09:02.322Z,53.26
2018-09-13T15:10:12.460Z,53.45
2018-09-13T15:11:22.590Z,54.89
2018-09-13T15:12:32.183Z,54.41
2018-09-13T15:13:42.520Z,55.36
2018-09-13T15:14:52.657Z,55.18
2018-09-13T15:16:02.789Z,56.13
2018-09-13T15:17:12.146Z,56.42
2018-09-13T15:18:22.284Z,55.65
2018-09-13T15:19:32.562Z,55.85
2018-09-13T15:20:42.711Z,56.04
2018-09-13T15:21:52.297Z,56.61
2018-09-13T15:23:02.433Z,56.49
2018-09-13T15:24:12.152Z,56.87
2018-09-13T15:25:22.356Z,56.39
2018-09-13T15:26:32.208Z,56.68
2018-09-13T15:27:42.337Z,57.35
2018-09-13T15:28:52.474Z,57.16
2018-09-13T15:30:02.329Z,57.9
2018-09-13T15:31:12.268Z,58.09
2018-09-13T15:32:22.572Z,57.9
2018-09-13T15:33:32.706Z,58.18
2018-09-13T15:34:42.885Z,58.56
2018-09-13T15:35:53.024Z,58.66
2018-09-13T15:37:02.783Z,58.86
2018-09-13T15:38:12.913Z,59.59
2018-09-13T15:39:22.770Z,59.05
2018-09-13T15:40:32.627Z,59.78
2018-09-13T15:41:42.483Z,59.49
2018-09-13T15:42:52.667Z,60.74
2018-09-13T15:44:02.266Z,59.97
2018-09-13T15:45:12.448Z,60.93
2018-09-13T15:46:22.626Z,61.12
2018-09-13T15:47:32.210Z,61.31
2018-09-13T15:48:42.346Z,61.88
2018-09-13T15:49:52.482Z,61.69
2018-09-13T15:51:02.065Z,61.98
2018-09-13T15:52:11.924Z,61.51
2018-09-13T15:53:22.055Z,61.79
2018-09-13T15:54:31.965Z,61.88
2018-09-13T15:55:42.139Z,62.27
2018-09-13T15:56:52.000Z,61.79
2018-09-13T15:58:02.127Z,62.08
2018-09-13T15:59:12.031Z,61.41
2018-09-13T16:00:22.016Z,61.51
2018-09-13T16:01:32.144Z,60.83
2018-09-13T16:02:42.324Z,61.79
2018-09-13T16:03:51.913Z,62.43
2018-09-13T16:05:02.096Z,62.52
2018-09-13T16:06:12.290Z,63.1
2018-09-13T16:07:22.423Z,62.62
2018-09-13T16:08:32.595Z,62.81
2018-09-13T16:09:42.781Z,63.67
2018-09-13T16:10:52.921Z,64.05
2018-09-13T16:12:02.838Z,64.25
2018-09-13T16:13:12.793Z,64.05
2018-09-13T16:14:22.939Z,64.53
2018-09-13T16:15:32.572Z,64.05
2018-09-13T16:16:42.426Z,64.53
2018-09-13T16:17:52.387Z,64.15
2018-09-13T16:19:02.287Z,64.15
2018-09-13T16:20:11.598Z,64.91
2018-09-13T16:21:21.843Z,64.43
2018-09-13T16:22:31.973Z,65.2
2018-09-13T16:23:41.713Z,65.84
2018-09-13T16:24:51.848Z,65.64
2018-09-13T16:26:01.497Z,65.26
2018-09-13T16:27:11.081Z,65.39
2018-09-13T16:28:21.357Z,66.22
2018-09-13T16:29:30.936Z,66.5
2018-09-13T16:30:41.116Z,66.22
2018-09-13T16:31:51.023Z,66.7
2018-09-13T16:33:01.157Z,67.36
2018-09-13T16:34:11.298Z,67.27
2018-09-13T16:35:21.314Z,67.75
2018-09-13T16:36:31.993Z,67.36
2018-09-13T16:37:42.135Z,68.9
2018-09-13T16:38:51.717Z,68.7
2018-09-13T16:40:01.297Z,68.9
2018-09-13T16:41:11.166Z,69.37
2018-09-13T16:42:21.393Z,69.82
2018-09-13T16:43:31.664Z,69.66
2018-09-13T16:44:41.896Z,69.72
2018-09-13T16:45:52.070Z,69.72
2018-09-13T16:47:02.248Z,70.1
2018-09-13T16:48:12.337Z,69.91
2018-09-13T16:49:22.469Z,70.48
2018-09-13T16:50:32.332Z,70.01
2018-09-13T16:51:42.243Z,71.06
2018-09-13T16:52:52.093Z,71.15
2018-09-13T16:54:02.046Z,71.06
2018-09-13T16:55:12.284Z,70.67
2018-09-13T16:56:21.865Z,70.87
2018-09-13T16:57:32.091Z,70.77
2018-09-13T16:58:42.282Z,71.25
2018-09-13T16:59:52.142Z,71.15
2018-09-13T17:01:02.277Z,70.77
2018-09-13T17:02:12.563Z,71.53
2018-09-13T17:03:22.747Z,72.3
2018-09-13T17:04:32.329Z,71.15
2018-09-13T17:05:42.192Z,71.25
2018-09-13T17:06:51.823Z,71.15
2018-09-13T17:08:01.972Z,71.44
2018-09-13T17:09:11.834Z,71.72
2018-09-13T17:10:21.789Z,72.01
2018-09-13T17:11:31.690Z,72.01
2018-09-13T17:12:41.548Z,72.17
2018-09-13T17:13:50.853Z,72.68
2018-09-13T17:15:00.985Z,72.07
2018-09-13T17:16:11.171Z,72.83
2018-09-13T17:17:21.306Z,72.74
2018-09-13T17:18:31.434Z,73.5
2018-09-13T17:19:41.564Z,73.41
2018-09-13T17:20:51.703Z,73.41
2018-09-13T17:22:01.878Z,73.5
2018-09-13T17:23:11.743Z,73.6
2018-09-13T17:24:21.638Z,73.6
2018-09-13T17:25:31.490Z,73.5
2018-09-13T17:26:41.620Z,74.46
2018-09-13T17:27:51.528Z,74.27
2018-09-13T17:29:01.654Z,74.55
2018-09-13T17:30:11.836Z,74.55
2018-09-13T17:31:21.969Z,74.84
2018-09-13T17:32:31.825Z,75.51
2018-09-13T17:33:41.845Z,75.03
2018-09-13T17:34:52.053Z,75.03
2018-09-13T17:36:01.914Z,75.7
2018-09-13T17:37:11.769Z,75.98
2018-09-13T17:38:22.002Z,76.27
2018-09-13T17:39:32.190Z,75.89
2018-09-13T17:40:42.321Z,76.08
2018-09-13T17:41:52.170Z,76.08
2018-09-13T17:43:02.079Z,76.18
2018-09-13T17:44:12.207Z,76.56
2018-09-13T17:45:22.394Z,76.08
2018-09-13T17:46:32.530Z,76.23
2018-09-13T17:47:42.672Z,76.62
2018-09-13T17:48:52.632Z,76.71
2018-09-13T17:50:02.767Z,77
2018-09-13T17:51:12.685Z,77.09
2018-09-13T17:52:22.824Z,77.28
2018-09-13T17:53:32.953Z,77.57
2018-09-13T17:54:42.807Z,77.09
2018-09-13T17:55:52.827Z,77.86
2018-09-13T17:57:02.429Z,77.86
2018-09-13T17:58:12.616Z,77.38
2018-09-13T17:59:22.596Z,77.76
2018-09-13T18:00:32.453Z,78.05
2018-09-13T18:01:42.369Z,78.14
2018-09-13T18:02:52.277Z,78.14
2018-09-13T18:04:02.456Z,77.86
2018-09-13T18:05:11.768Z,78.33
2018-09-13T18:06:21.904Z,78.14
2018-09-13T18:07:31.487Z,78.05
2018-09-13T18:08:41.717Z,78.33
2018-09-13T18:09:51.296Z,78.72
2018-09-13T18:11:01.491Z,78.52
2018-09-13T18:12:11.862Z,78.81
2018-09-13T18:13:21.492Z,78.62
2018-09-13T18:14:31.676Z,78.81
2018-09-13T18:15:41.812Z,79.19
2018-09-13T18:16:51.437Z,79.19
2018-09-13T18:18:01.417Z,79.57
2018-09-13T18:19:11.277Z,78.52
2018-09-13T18:20:20.908Z,79.48
2018-09-13T18:21:30.494Z,79.28
2018-09-13T18:22:40.078Z,80.15
2018-09-13T18:23:50.257Z,80.43
2018-09-13T18:25:00.427Z,80.05
2018-09-13T18:26:10.384Z,80.24
2018-09-13T18:27:20.515Z,80.91
2018-09-13T18:28:30.643Z,81.1
2018-09-13T18:29:40.776Z,81.67
2018-09-13T18:30:50.908Z,81.29
2018-09-13T18:32:00.260Z,81.67
2018-09-13T18:33:10.111Z,81.29
2018-09-13T18:34:20.343Z,81.48
2018-09-13T18:35:29.927Z,81.86
2018-09-13T18:36:40.054Z,81.86
2018-09-13T18:37:50.277Z,81.67
2018-09-13T18:39:00.242Z,81.86
2018-09-13T18:40:10.376Z,81.96
2018-09-13T18:41:20.511Z,82.15
2018-09-13T18:42:30.373Z,81.67
2018-09-13T18:43:40.273Z,81.67
2018-09-13T18:44:50.409Z,81.86
2018-09-13T18:46:00.038Z,81.77
2018-09-13T18:47:09.914Z,82.34
2018-09-13T18:48:20.049Z,81.77
2018-09-13T18:49:30.275Z,82.15
2018-09-13T18:50:40.401Z,81.77
2018-09-13T18:51:49.990Z,81.96
2018-09-13T18:53:00.262Z,82.06
2018-09-13T18:54:10.682Z,81.86
2018-09-13T18:55:21.508Z,82.43
2018-09-13T18:56:31.668Z,82.82
2018-09-13T18:57:41.251Z,83.2
2018-09-13T18:58:51.109Z,83.2
2018-09-13T19:00:01.242Z,83.01
2018-09-13T19:01:11.473Z,82.63
2018-09-13T19:02:21.607Z,82.91
2018-09-13T19:03:31.795Z,83.01
2018-09-13T19:04:41.649Z,83.11
2018-09-13T19:05:51.782Z,82.72
2018-09-13T19:07:01.682Z,82.34
2018-09-13T19:08:12.067Z,81.86
2018-09-13T19:09:22.233Z,81.86
2018-09-13T19:10:32.413Z,82.34
2018-09-13T19:11:42.619Z,82.63
2018-09-13T19:12:52.802Z,82.72
2018-09-13T19:14:02.667Z,82.63
2018-09-13T19:15:12.524Z,82.91
2018-09-13T19:16:22.704Z,83.39
2018-09-13T19:17:32.617Z,83.67
2018-09-13T19:18:42.626Z,83.48
2018-09-13T19:19:52.761Z,83.77
2018-09-13T19:21:02.944Z,83.48
2018-09-13T19:22:12.524Z,83.73
2018-09-13T19:23:22.759Z,84.06
2018-09-13T19:24:32.936Z,84.01
2018-09-13T19:25:43.111Z,84.44
2018-09-13T19:26:53.024Z,83.92
2018-09-13T19:28:02.153Z,83.92
2018-09-13T19:29:12.027Z,83.54
2018-09-13T19:30:21.979Z,83.54
2018-09-13T19:31:32.102Z,83.35
2018-09-13T19:32:42.293Z,83.54
2018-09-13T19:33:52.425Z,83.54
2018-09-13T19:35:02.618Z,83.73
2018-09-13T19:36:12.793Z,83.64
2018-09-13T19:37:22.646Z,83.44
2018-09-13T19:38:32.881Z,83.35
2018-09-13T19:39:43.021Z,83.73
2018-09-13T19:40:53.236Z,83.83
2018-09-13T19:42:03.241Z,83.54
2018-09-13T19:43:13.470Z,83.35
2018-09-13T19:44:23.155Z,83.73
2018-09-13T19:45:33.039Z,83.73
2018-09-13T19:46:42.619Z,83.54
2018-09-13T19:47:52.798Z,83.54
2018-09-13T19:49:02.648Z,83.44
2018-09-13T19:50:12.504Z,83.83
2018-09-13T19:51:22.536Z,84.11
2018-09-13T19:52:32.747Z,83.64
2018-09-13T19:53:43.013Z,83.54
2018-09-13T19:54:52.924Z,83.54
2018-09-13T19:56:03.056Z,83.44
2018-09-13T19:57:13.186Z,83.35
2018-09-13T19:58:23.343Z,83.83
2018-09-13T19:59:33.639Z,84.3
2018-09-13T20:00:43.821Z,83.73
2018-09-13T20:01:53.951Z,83.64
2018-09-13T20:03:04.175Z,83.73
2018-09-13T20:04:14.240Z,83.64
2018-09-13T20:05:24.487Z,83.44
2018-09-13T20:06:34.343Z,83.73
2018-09-13T20:07:44.466Z,83.35
2018-09-13T20:08:54.330Z,83.21
2018-09-13T20:10:04.180Z,82.87
2018-09-13T20:11:14.081Z,83.16
2018-09-13T20:12:23.949Z,82.68
2018-09-13T20:13:33.800Z,83.16
2018-09-13T20:14:43.949Z,82.97
2018-09-13T20:15:54.127Z,82.68
2018-09-13T20:17:04.312Z,82.68
2018-09-13T20:18:14.642Z,82.68
2018-09-13T20:19:24.968Z,82.49
2018-09-13T20:20:34.819Z,82.4
2018-09-13T20:21:44.666Z,82.3
2018-09-13T20:22:54.244Z,82.11
2018-09-13T20:24:04.158Z,81.73
2018-09-13T20:25:14.288Z,81.82
2018-09-13T20:26:24.138Z,81.54
2018-09-13T20:27:33.987Z,80.68
2018-09-13T20:28:44.337Z,81.06
2018-09-13T20:29:55.012Z,80.96
2018-09-13T20:31:04.870Z,80.77
2018-09-13T20:32:15.004Z,80.87
2018-09-13T20:33:24.855Z,80.77
2018-09-13T20:34:35.079Z,80.58
2018-09-13T20:35:45.214Z,80.77
2018-09-13T20:36:55.350Z,80.58
2018-09-13T20:38:04.928Z,81.25
2018-09-13T20:39:15.251Z,80.49
2018-09-13T20:40:25.539Z,80.3
2018-09-13T20:41:35.125Z,80.39
2018-09-13T20:42:45.111Z,81.06
2018-09-13T20:43:55.775Z,80.58
2018-09-13T20:45:05.964Z,80.68
2018-09-13T20:46:15.881Z,80.58
2018-09-13T20:47:25.467Z,80.96
2018-09-13T20:48:35.720Z,80.58
2018-09-13T20:49:46.287Z,80.68
2018-09-13T20:50:56.417Z,80.87
2018-09-13T20:52:06.429Z,80.96
2018-09-13T20:53:15.731Z,80.68
2018-09-13T20:54:25.855Z,81.15
2018-09-13T20:55:35.753Z,80.87
2018-09-13T20:56:45.877Z,81.06
2018-09-13T20:57:56.006Z,81.15
2018-09-13T20:59:06.132Z,81.35
2018-09-13T21:00:16.265Z,81.63
2018-09-13T21:01:26.127Z,81.92
2018-09-13T21:02:36.272Z,82.3
2018-09-13T21:03:45.897Z,82.01
2018-09-13T21:04:56.029Z,82.01
2018-09-13T21:06:06.161Z,81.54
2018-09-13T21:07:16.289Z,81.54
2018-09-13T21:08:26.497Z,81.82
2018-09-13T21:09:36.905Z,81.82
2018-09-13T21:10:47.045Z,81.15
2018-09-13T21:11:56.897Z,81.35
2018-09-13T21:13:06.475Z,81.25
2018-09-13T21:14:16.609Z,81.54
2018-09-13T21:15:26.792Z,81.73
2018-09-13T21:16:36.920Z,81.82
2018-09-13T21:17:47.055Z,81.73
2018-09-13T21:18:56.900Z,81.73
2018-09-13T21:20:06.789Z,81.73
2018-09-13T21:21:16.915Z,81.54
2018-09-13T21:22:27.046Z,81.59
2018-09-13T21:23:37.173Z,81.44
2018-09-13T21:24:47.032Z,81.44
2018-09-13T21:25:57.166Z,81.54
2018-09-13T21:27:07.018Z,82.59
2018-09-13T21:28:16.885Z,82.4
2018-09-13T21:29:26.741Z,82.11
2018-09-13T21:30:36.592Z,82.4
2018-09-13T21:31:46.728Z,82.11
2018-09-13T21:32:57.071Z,82.3
2018-09-13T21:34:07.250Z,82.2
2018-09-13T21:35:17.096Z,82.3
2018-09-13T21:36:27.228Z,82.35
2018-09-13T21:37:37.351Z,82.26
2018-09-13T21:38:47.478Z,82.59
2018-09-13T21:39:57.336Z,82.4
2018-09-13T21:41:07.468Z,82.2
2018-09-13T21:42:17.595Z,82.87
2018-09-13T21:43:27.726Z,82.4
2018-09-13T21:44:37.908Z,81.97
2018-09-13T21:45:48.046Z,82.4
2018-09-13T21:46:58.176Z,81.73
2018-09-13T21:48:08.312Z,81.4
2018-09-13T21:49:18.472Z,82.11
2018-09-13T21:50:28.646Z,81.82
2018-09-13T21:51:38.769Z,81.92
2018-09-13T21:52:48.076Z,81.97
2018-09-13T21:53:58.202Z,82.01
2018-09-13T21:55:08.063Z,81.92
2018-09-13T21:56:18.236Z,82.45
2018-09-13T21:57:27.813Z,81.97
2018-09-13T21:58:37.671Z,82.11
2018-09-13T21:59:47.950Z,81.82
2018-09-13T22:00:58.085Z,82.49
2018-09-13T22:02:08.268Z,82.73
2018-09-13T22:03:18.398Z,82.17
2018-09-13T22:04:28.256Z,82.07
2018-09-13T22:05:38.393Z,82.92
2018-09-13T22:06:48.517Z,82.87
2018-09-13T22:08:00.655Z,83.02
2018-09-13T22:09:10.510Z,82.83
2018-09-13T22:10:20.358Z,82.64
2018-09-13T22:11:29.942Z,82.83
2018-09-13T22:12:39.539Z,83.12
2018-09-13T22:13:49.446Z,83.31
2018-09-13T22:14:59.293Z,82.73
2018-09-13T22:16:09.421Z,83.5
2018-09-13T22:17:19.548Z,83.4
2018-09-13T22:18:29.399Z,83.4
2018-09-13T22:19:39.299Z,83.69
2018-09-13T22:20:49.426Z,83.31
2018-09-13T22:21:59.560Z,83.69
2018-09-13T22:23:09.418Z,83.69
2018-09-13T22:24:18.718Z,83.78
2018-09-13T22:25:28.570Z,83.5
2018-09-13T22:26:38.148Z,84.16
2018-09-13T22:27:47.726Z,84.07
2018-09-13T22:28:57.304Z,83.12
2018-09-13T22:30:06.760Z,83.59
2018-09-13T22:31:16.676Z,83.59
2018-09-13T22:32:26.263Z,83.78
2018-09-13T22:33:36.396Z,83.97
2018-09-13T22:34:46.252Z,83.5
2018-09-13T22:35:56.375Z,84.07
2018-09-13T22:37:06.278Z,83.97
2018-09-13T22:38:16.404Z,84.16
2018-09-13T22:39:26.255Z,84.07
2018-09-13T22:40:36.124Z,84.07
2018-09-13T22:41:46.247Z,84.36
2018-09-13T22:42:56.423Z,83.78
2018-09-13T22:44:06.562Z,83.97
2018-09-13T22:45:16.414Z,84.64
2018-09-13T22:46:26.544Z,83.78
2018-09-13T22:47:36.123Z,84.55
2018-09-13T22:48:46.075Z,84.45
2018-09-13T22:49:55.933Z,83.97
2018-09-13T22:51:06.066Z,84.36
2018-09-13T22:52:16.196Z,84.64
2018-09-13T22:53:26.097Z,85.21
2018-09-13T22:54:36.255Z,84.55
2018-09-13T22:55:46.387Z,85.12
2018-09-13T22:56:56.241Z,85.02
2018-09-13T22:58:06.090Z,85.21
2018-09-13T22:59:15.667Z,85.12
2018-09-13T23:00:25.846Z,85.31
2018-09-13T23:01:35.712Z,85.88
2018-09-13T23:02:45.841Z,86.07